sensor_id;sensor_type;location;lat;lon;timestamp;temperature;humidity
34927;DHT22;21132;48.308;14.274;2023-04-25T00:02:02;12.60;64.00
34927;DHT22;21132;48.308;14.274;2023-04-25T00:04:29;12.60;64.00
34927;DHT22;21132;48.308;14.274;2023-04-25T00:06:55;12.60;63.90
34927;DHT22;21132;48.308;14.274;2023-04-25T00:09:22;12.60;63.90
34927;DHT22;21132;48.308;14.274;2023-04-25T00:11:48;12.70;63.80
34927;DHT22;21132;48.308;14.274;2023-04-25T00:14:14;12.70;63.80
34927;DHT22;21132;48.308;14.274;2023-04-25T00:16:40;12.70;63.60
34927;DHT22;21132;48.308;14.274;2023-04-25T00:19:09;12.70;63.50
34927;DHT22;21132;48.308;14.274;2023-04-25T00:21:35;12.70;63.40
34927;DHT22;21132;48.308;14.274;2023-04-25T00:24:03;12.70;63.30
34927;DHT22;21132;48.308;14.274;2023-04-25T00:26:29;12.70;63.10
34927;DHT22;21132;48.308;14.274;2023-04-25T00:28:55;12.60;62.90
34927;DHT22;21132;48.308;14.274;2023-04-25T00:31:21;12.70;62.80
34927;DHT22;21132;48.308;14.274;2023-04-25T00:33:47;12.60;62.70
34927;DHT22;21132;48.308;14.274;2023-04-25T00:36:13;12.60;62.70
34927;DHT22;21132;48.308;14.274;2023-04-25T00:38:39;12.60;62.70
34927;DHT22;21132;48.308;14.274;2023-04-25T00:41:08;12.50;62.60
34927;DHT22;21132;48.308;14.274;2023-04-25T00:43:37;12.50;62.90
34927;DHT22;21132;48.308;14.274;2023-04-25T00:46:03;12.50;62.80
34927;DHT22;21132;48.308;14.274;2023-04-25T00:48:29;12.50;62.80
34927;DHT22;21132;48.308;14.274;2023-04-25T00:50:57;12.40;62.80
34927;DHT22;21132;48.308;14.274;2023-04-25T00:53:26;12.40;62.90
34927;DHT22;21132;48.308;14.274;2023-04-25T00:55:52;12.40;62.90
34927;DHT22;21132;48.308;14.274;2023-04-25T00:58:19;12.40;62.90
34927;DHT22;21132;48.308;14.274;2023-04-25T01:00:47;12.40;63.00
34927;DHT22;21132;48.308;14.274;2023-04-25T01:03:13;12.30;63.20
34927;DHT22;21132;48.308;14.274;2023-04-25T01:05:42;12.30;63.20
34927;DHT22;21132;48.308;14.274;2023-04-25T01:08:09;12.30;63.20
34927;DHT22;21132;48.308;14.274;2023-04-25T01:10:35;12.30;63.10
34927;DHT22;21132;48.308;14.274;2023-04-25T01:13:01;12.20;63.00
34927;DHT22;21132;48.308;14.274;2023-04-25T01:15:27;12.20;63.10
34927;DHT22;21132;48.308;14.274;2023-04-25T01:17:53;12.20;63.20
34927;DHT22;21132;48.308;14.274;2023-04-25T01:20:23;12.10;63.20
34927;DHT22;21132;48.308;14.274;2023-04-25T01:22:54;12.10;63.10
34927;DHT22;21132;48.308;14.274;2023-04-25T01:25:21;12.10;63.20
34927;DHT22;21132;48.308;14.274;2023-04-25T01:27:47;12.10;63.20
34927;DHT22;21132;48.308;14.274;2023-04-25T01:30:13;12.10;63.10
34927;DHT22;21132;48.308;14.274;2023-04-25T01:32:39;12.10;63.10
34927;DHT22;21132;48.308;14.274;2023-04-25T01:35:08;12.10;63.00
34927;DHT22;21132;48.308;14.274;2023-04-25T01:37:40;12.10;63.10
34927;DHT22;21132;48.308;14.274;2023-04-25T01:40:08;12.10;63.20
34927;DHT22;21132;48.308;14.274;2023-04-25T01:42:35;12.10;63.20
34927;DHT22;21132;48.308;14.274;2023-04-25T01:45:01;12.00;63.10
34927;DHT22;21132;48.308;14.274;2023-04-25T01:47:27;12.00;63.10
34927;DHT22;21132;48.308;14.274;2023-04-25T01:49:53;12.00;63.20
34927;DHT22;21132;48.308;14.274;2023-04-25T01:52:19;12.00;63.30
34927;DHT22;21132;48.308;14.274;2023-04-25T01:54:45;11.90;63.30
34927;DHT22;21132;48.308;14.274;2023-04-25T01:57:12;11.90;63.50
34927;DHT22;21132;48.308;14.274;2023-04-25T01:59:38;11.90;63.60
34927;DHT22;21132;48.308;14.274;2023-04-25T02:02:04;11.90;63.70
34927;DHT22;21132;48.308;14.274;2023-04-25T02:04:30;12.00;63.70
34927;DHT22;21132;48.308;14.274;2023-04-25T02:06:56;12.00;63.50
34927;DHT22;21132;48.308;14.274;2023-04-25T02:09:22;12.00;63.20
34927;DHT22;21132;48.308;14.274;2023-04-25T02:11:48;12.00;63.70
34927;DHT22;21132;48.308;14.274;2023-04-25T02:14:14;12.00;62.80
34927;DHT22;21132;48.308;14.274;2023-04-25T02:16:40;12.00;62.60
34927;DHT22;21132;48.308;14.274;2023-04-25T02:19:06;12.10;62.40
34927;DHT22;21132;48.308;14.274;2023-04-25T02:21:32;12.10;62.30
34927;DHT22;21132;48.308;14.274;2023-04-25T02:23:58;12.10;62.30
34927;DHT22;21132;48.308;14.274;2023-04-25T02:26:24;12.10;62.40
34927;DHT22;21132;48.308;14.274;2023-04-25T02:28:50;12.10;62.50
34927;DHT22;21132;48.308;14.274;2023-04-25T02:31:16;12.10;62.60
34927;DHT22;21132;48.308;14.274;2023-04-25T02:33:43;12.00;62.50
34927;DHT22;21132;48.308;14.274;2023-04-25T02:36:08;12.00;62.60
34927;DHT22;21132;48.308;14.274;2023-04-25T02:38:34;12.00;62.70
34927;DHT22;21132;48.308;14.274;2023-04-25T02:41:00;12.00;62.60
34927;DHT22;21132;48.308;14.274;2023-04-25T02:43:26;11.90;62.60
34927;DHT22;21132;48.308;14.274;2023-04-25T02:45:52;11.90;62.60
34927;DHT22;21132;48.308;14.274;2023-04-25T02:48:17;11.90;62.80
34927;DHT22;21132;48.308;14.274;2023-04-25T02:50:43;11.90;62.90
34927;DHT22;21132;48.308;14.274;2023-04-25T02:53:09;11.80;63.10
34927;DHT22;21132;48.308;14.274;2023-04-25T02:55:35;11.80;63.50
34927;DHT22;21132;48.308;14.274;2023-04-25T02:58:01;11.70;63.60
34927;DHT22;21132;48.308;14.274;2023-04-25T03:00:26;11.70;63.60
34927;DHT22;21132;48.308;14.274;2023-04-25T03:02:53;11.70;63.80
34927;DHT22;21132;48.308;14.274;2023-04-25T03:05:19;11.60;63.70
34927;DHT22;21132;48.308;14.274;2023-04-25T03:07:44;11.60;63.70
34927;DHT22;21132;48.308;14.274;2023-04-25T03:10:11;11.60;63.80
34927;DHT22;21132;48.308;14.274;2023-04-25T03:12:37;11.50;63.90
34927;DHT22;21132;48.308;14.274;2023-04-25T03:15:04;11.50;63.90
34927;DHT22;21132;48.308;14.274;2023-04-25T03:17:29;11.40;64.00
34927;DHT22;21132;48.308;14.274;2023-04-25T03:19:55;11.40;64.10
34927;DHT22;21132;48.308;14.274;2023-04-25T03:22:22;11.40;64.20
34927;DHT22;21132;48.308;14.274;2023-04-25T03:24:47;11.30;64.30
34927;DHT22;21132;48.308;14.274;2023-04-25T03:27:13;11.30;64.30
34927;DHT22;21132;48.308;14.274;2023-04-25T03:29:39;11.30;64.50
34927;DHT22;21132;48.308;14.274;2023-04-25T03:32:06;11.20;64.50
34927;DHT22;21132;48.308;14.274;2023-04-25T03:34:31;11.20;64.60
34927;DHT22;21132;48.308;14.274;2023-04-25T03:36:57;11.20;64.70
34927;DHT22;21132;48.308;14.274;2023-04-25T03:39:23;11.20;64.80
34927;DHT22;21132;48.308;14.274;2023-04-25T03:41:49;11.10;64.80
34927;DHT22;21132;48.308;14.274;2023-04-25T03:44:15;11.10;64.90
34927;DHT22;21132;48.308;14.274;2023-04-25T03:46:40;11.10;65.00
34927;DHT22;21132;48.308;14.274;2023-04-25T03:49:06;11.10;65.10
34927;DHT22;21132;48.308;14.274;2023-04-25T03:51:32;11.00;65.50
34927;DHT22;21132;48.308;14.274;2023-04-25T03:53:58;11.00;65.20
34927;DHT22;21132;48.308;14.274;2023-04-25T03:56:23;11.00;65.30
34927;DHT22;21132;48.308;14.274;2023-04-25T03:58:49;11.00;65.50
34927;DHT22;21132;48.308;14.274;2023-04-25T04:01:15;11.00;65.60
34927;DHT22;21132;48.308;14.274;2023-04-25T04:03:41;11.00;65.70
34927;DHT22;21132;48.308;14.274;2023-04-25T04:06:07;11.00;65.70
34927;DHT22;21132;48.308;14.274;2023-04-25T04:08:34;11.00;65.70
34927;DHT22;21132;48.308;14.274;2023-04-25T04:11:00;11.00;65.70
34927;DHT22;21132;48.308;14.274;2023-04-25T04:13:26;11.00;65.60
34927;DHT22;21132;48.308;14.274;2023-04-25T04:15:52;11.00;65.60
34927;DHT22;21132;48.308;14.274;2023-04-25T04:18:19;11.00;65.50
34927;DHT22;21132;48.308;14.274;2023-04-25T04:20:45;11.00;65.50
34927;DHT22;21132;48.308;14.274;2023-04-25T04:23:11;11.00;65.50
34927;DHT22;21132;48.308;14.274;2023-04-25T04:25:37;11.00;65.70
34927;DHT22;21132;48.308;14.274;2023-04-25T04:28:03;11.00;65.70
34927;DHT22;21132;48.308;14.274;2023-04-25T04:30:29;11.10;65.80
34927;DHT22;21132;48.308;14.274;2023-04-25T04:32:55;11.10;65.80
34927;DHT22;21132;48.308;14.274;2023-04-25T04:35:27;11.20;65.90
34927;DHT22;21132;48.308;14.274;2023-04-25T04:37:53;11.30;65.80
34927;DHT22;21132;48.308;14.274;2023-04-25T04:40:20;11.40;65.70
34927;DHT22;21132;48.308;14.274;2023-04-25T04:42:50;11.40;65.40
34927;DHT22;21132;48.308;14.274;2023-04-25T04:45:15;11.50;65.10
34927;DHT22;21132;48.308;14.274;2023-04-25T04:47:41;11.60;65.00
34927;DHT22;21132;48.308;14.274;2023-04-25T04:50:08;11.60;64.80
34927;DHT22;21132;48.308;14.274;2023-04-25T04:52:38;11.60;64.60
34927;DHT22;21132;48.308;14.274;2023-04-25T04:55:04;11.70;64.50
34927;DHT22;21132;48.308;14.274;2023-04-25T04:57:31;11.70;64.30
34927;DHT22;21132;48.308;14.274;2023-04-25T04:59:58;11.80;64.00
34927;DHT22;21132;48.308;14.274;2023-04-25T05:02:24;11.90;63.80
34927;DHT22;21132;48.308;14.274;2023-04-25T05:04:51;11.90;63.60
34927;DHT22;21132;48.308;14.274;2023-04-25T05:07:17;11.90;63.40
34927;DHT22;21132;48.308;14.274;2023-04-25T05:09:43;12.00;63.30
34927;DHT22;21132;48.308;14.274;2023-04-25T05:12:09;12.00;63.30
34927;DHT22;21132;48.308;14.274;2023-04-25T05:14:35;12.10;63.40
34927;DHT22;21132;48.308;14.274;2023-04-25T05:17:01;12.10;63.50
34927;DHT22;21132;48.308;14.274;2023-04-25T05:19:29;12.20;63.30
34927;DHT22;21132;48.308;14.274;2023-04-25T05:21:55;12.30;62.90
34927;DHT22;21132;48.308;14.274;2023-04-25T05:24:20;12.30;62.50
34927;DHT22;21132;48.308;14.274;2023-04-25T05:26:46;12.40;62.10
34927;DHT22;21132;48.308;14.274;2023-04-25T05:29:12;12.50;61.90
34927;DHT22;21132;48.308;14.274;2023-04-25T05:31:38;12.50;61.70
34927;DHT22;21132;48.308;14.274;2023-04-25T05:34:03;12.60;61.80
34927;DHT22;21132;48.308;14.274;2023-04-25T05:36:29;12.70;62.00
34927;DHT22;21132;48.308;14.274;2023-04-25T05:38:56;12.80;61.90
34927;DHT22;21132;48.308;14.274;2023-04-25T05:41:22;12.80;61.70
34927;DHT22;21132;48.308;14.274;2023-04-25T05:43:47;13.00;61.70
34927;DHT22;21132;48.308;14.274;2023-04-25T05:46:15;13.10;61.20
34927;DHT22;21132;48.308;14.274;2023-04-25T05:48:42;13.20;60.30
34927;DHT22;21132;48.308;14.274;2023-04-25T05:51:08;13.30;60.40
34927;DHT22;21132;48.308;14.274;2023-04-25T05:53:34;13.40;60.00
34927;DHT22;21132;48.308;14.274;2023-04-25T05:56:00;13.40;59.80
34927;DHT22;21132;48.308;14.274;2023-04-25T05:58:26;13.40;59.70
34927;DHT22;21132;48.308;14.274;2023-04-25T06:00:52;13.40;59.70
34927;DHT22;21132;48.308;14.274;2023-04-25T06:03:17;13.50;59.70
34927;DHT22;21132;48.308;14.274;2023-04-25T06:05:44;13.50;60.00
34927;DHT22;21132;48.308;14.274;2023-04-25T06:08:10;13.50;60.30
34927;DHT22;21132;48.308;14.274;2023-04-25T06:10:36;13.60;60.30
34927;DHT22;21132;48.308;14.274;2023-04-25T06:13:03;13.70;59.70
34927;DHT22;21132;48.308;14.274;2023-04-25T06:15:29;13.70;59.80
34927;DHT22;21132;48.308;14.274;2023-04-25T06:17:55;13.80;59.70
34927;DHT22;21132;48.308;14.274;2023-04-25T06:20:21;13.80;59.00
34927;DHT22;21132;48.308;14.274;2023-04-25T06:22:50;13.80;58.40
34927;DHT22;21132;48.308;14.274;2023-04-25T06:25:17;13.80;58.60
34927;DHT22;21132;48.308;14.274;2023-04-25T06:27:43;13.80;58.50
34927;DHT22;21132;48.308;14.274;2023-04-25T06:30:09;13.90;58.30
34927;DHT22;21132;48.308;14.274;2023-04-25T06:32:36;13.90;58.20
34927;DHT22;21132;48.308;14.274;2023-04-25T06:35:02;13.80;58.30
34927;DHT22;21132;48.308;14.274;2023-04-25T06:37:29;13.90;58.10
34927;DHT22;21132;48.308;14.274;2023-04-25T06:39:54;13.90;58.20
34927;DHT22;21132;48.308;14.274;2023-04-25T06:42:20;14.00;58.10
34927;DHT22;21132;48.308;14.274;2023-04-25T06:44:46;14.00;57.80
34927;DHT22;21132;48.308;14.274;2023-04-25T06:47:12;14.00;57.70
34927;DHT22;21132;48.308;14.274;2023-04-25T06:49:37;14.00;57.90
34927;DHT22;21132;48.308;14.274;2023-04-25T06:52:03;14.10;57.60
34927;DHT22;21132;48.308;14.274;2023-04-25T06:54:29;14.10;57.40
34927;DHT22;21132;48.308;14.274;2023-04-25T06:56:55;14.10;57.30
34927;DHT22;21132;48.308;14.274;2023-04-25T06:59:21;14.20;57.10
34927;DHT22;21132;48.308;14.274;2023-04-25T07:01:47;14.20;57.10
34927;DHT22;21132;48.308;14.274;2023-04-25T07:04:13;14.20;56.70
34927;DHT22;21132;48.308;14.274;2023-04-25T07:06:39;14.20;56.80
34927;DHT22;21132;48.308;14.274;2023-04-25T07:09:11;14.30;56.70
34927;DHT22;21132;48.308;14.274;2023-04-25T07:11:37;14.30;56.70
34927;DHT22;21132;48.308;14.274;2023-04-25T07:14:03;14.30;57.00
34927;DHT22;21132;48.308;14.274;2023-04-25T07:16:29;14.40;56.90
34927;DHT22;21132;48.308;14.274;2023-04-25T07:18:54;14.40;56.60
34927;DHT22;21132;48.308;14.274;2023-04-25T07:21:20;14.50;56.70
34927;DHT22;21132;48.308;14.274;2023-04-25T07:23:46;14.50;56.30
34927;DHT22;21132;48.308;14.274;2023-04-25T07:26:12;14.50;56.20
34927;DHT22;21132;48.308;14.274;2023-04-25T07:28:38;14.60;56.10
34927;DHT22;21132;48.308;14.274;2023-04-25T07:31:04;14.60;55.80
34927;DHT22;21132;48.308;14.274;2023-04-25T07:33:31;14.70;55.70
34927;DHT22;21132;48.308;14.274;2023-04-25T07:35:56;14.70;56.10
34927;DHT22;21132;48.308;14.274;2023-04-25T07:38:22;14.80;56.20
34927;DHT22;21132;48.308;14.274;2023-04-25T07:40:48;14.80;56.00
34927;DHT22;21132;48.308;14.274;2023-04-25T07:43:14;14.90;56.00
34927;DHT22;21132;48.308;14.274;2023-04-25T07:45:43;14.90;55.60
34927;DHT22;21132;48.308;14.274;2023-04-25T07:48:09;15.00;55.50
34927;DHT22;21132;48.308;14.274;2023-04-25T07:50:35;15.10;55.50
34927;DHT22;21132;48.308;14.274;2023-04-25T07:53:01;15.20;54.60
34927;DHT22;21132;48.308;14.274;2023-04-25T07:55:27;15.30;55.10
34927;DHT22;21132;48.308;14.274;2023-04-25T07:57:53;15.40;54.50
34927;DHT22;21132;48.308;14.274;2023-04-25T08:00:19;15.60;54.80
34927;DHT22;21132;48.308;14.274;2023-04-25T08:02:45;15.70;54.20
34927;DHT22;21132;48.308;14.274;2023-04-25T08:05:11;15.90;54.10
34927;DHT22;21132;48.308;14.274;2023-04-25T08:07:40;16.00;53.30
34927;DHT22;21132;48.308;14.274;2023-04-25T08:10:07;16.10;53.00
34927;DHT22;21132;48.308;14.274;2023-04-25T08:12:33;16.20;52.90
34927;DHT22;21132;48.308;14.274;2023-04-25T08:14:59;16.20;52.50
34927;DHT22;21132;48.308;14.274;2023-04-25T08:17:24;16.20;52.00
34927;DHT22;21132;48.308;14.274;2023-04-25T08:19:50;16.20;52.20
34927;DHT22;21132;48.308;14.274;2023-04-25T08:22:16;16.20;52.30
34927;DHT22;21132;48.308;14.274;2023-04-25T08:24:43;16.20;51.80
34927;DHT22;21132;48.308;14.274;2023-04-25T08:27:09;16.20;51.80
34927;DHT22;21132;48.308;14.274;2023-04-25T08:29:35;16.20;51.20
34927;DHT22;21132;48.308;14.274;2023-04-25T08:32:01;16.20;51.70
34927;DHT22;21132;48.308;14.274;2023-04-25T08:34:27;16.20;51.10
34927;DHT22;21132;48.308;14.274;2023-04-25T08:36:52;16.20;51.40
34927;DHT22;21132;48.308;14.274;2023-04-25T08:39:18;16.30;51.20
34927;DHT22;21132;48.308;14.274;2023-04-25T08:41:44;16.30;50.80
34927;DHT22;21132;48.308;14.274;2023-04-25T08:44:11;16.30;50.20
34927;DHT22;21132;48.308;14.274;2023-04-25T08:46:40;16.30;50.50
34927;DHT22;21132;48.308;14.274;2023-04-25T08:49:07;16.40;50.20
34927;DHT22;21132;48.308;14.274;2023-04-25T08:51:33;16.60;50.50
34927;DHT22;21132;48.308;14.274;2023-04-25T08:54:10;16.70;50.10
34927;DHT22;21132;48.308;14.274;2023-04-25T08:56:44;16.90;50.20
34927;DHT22;21132;48.308;14.274;2023-04-25T08:59:12;17.10;50.10
34927;DHT22;21132;48.308;14.274;2023-04-25T09:01:38;17.30;49.80
34927;DHT22;21132;48.308;14.274;2023-04-25T09:04:04;17.40;49.50
34927;DHT22;21132;48.308;14.274;2023-04-25T09:06:31;17.60;49.10
34927;DHT22;21132;48.308;14.274;2023-04-25T09:09:05;17.60;48.50
34927;DHT22;21132;48.308;14.274;2023-04-25T09:11:31;17.70;48.00
34927;DHT22;21132;48.308;14.274;2023-04-25T09:14:14;17.70;48.20
34927;DHT22;21132;48.308;14.274;2023-04-25T09:19:29;17.60;47.90
34927;DHT22;21132;48.308;14.274;2023-04-25T09:21:57;17.60;47.50
34927;DHT22;21132;48.308;14.274;2023-04-25T09:24:38;17.60;47.50
34927;DHT22;21132;48.308;14.274;2023-04-25T09:27:18;17.50;47.90
34927;DHT22;21132;48.308;14.274;2023-04-25T09:29:44;17.50;47.80
34927;DHT22;21132;48.308;14.274;2023-04-25T09:32:21;17.50;47.20
34927;DHT22;21132;48.308;14.274;2023-04-25T09:34:55;17.50;47.00
34927;DHT22;21132;48.308;14.274;2023-04-25T09:37:22;17.50;46.40
34927;DHT22;21132;48.308;14.274;2023-04-25T09:39:50;17.60;48.40
34927;DHT22;21132;48.308;14.274;2023-04-25T09:42:16;17.60;46.70
34927;DHT22;21132;48.308;14.274;2023-04-25T09:44:44;17.60;47.00
34927;DHT22;21132;48.308;14.274;2023-04-25T09:47:11;17.60;46.90
34927;DHT22;21132;48.308;14.274;2023-04-25T09:49:42;17.50;46.70
34927;DHT22;21132;48.308;14.274;2023-04-25T09:52:09;17.50;46.60
34927;DHT22;21132;48.308;14.274;2023-04-25T09:54:38;17.50;46.40
34927;DHT22;21132;48.308;14.274;2023-04-25T09:57:22;17.60;46.30
34927;DHT22;21132;48.308;14.274;2023-04-25T09:59:52;17.70;46.60
34927;DHT22;21132;48.308;14.274;2023-04-25T10:02:23;17.70;47.70
34927;DHT22;21132;48.308;14.274;2023-04-25T10:04:51;17.80;46.30
34927;DHT22;21132;48.308;14.274;2023-04-25T10:07:20;17.90;46.20
34927;DHT22;21132;48.308;14.274;2023-04-25T10:09:49;18.00;46.40
34927;DHT22;21132;48.308;14.274;2023-04-25T10:12:16;18.10;45.40
34927;DHT22;21132;48.308;14.274;2023-04-25T10:14:42;18.20;45.60
34927;DHT22;21132;48.308;14.274;2023-04-25T10:17:10;18.20;46.10
34927;DHT22;21132;48.308;14.274;2023-04-25T10:19:39;18.30;46.30
34927;DHT22;21132;48.308;14.274;2023-04-25T10:22:13;18.40;45.90
34927;DHT22;21132;48.308;14.274;2023-04-25T10:24:43;18.50;45.20
34927;DHT22;21132;48.308;14.274;2023-04-25T10:27:09;18.50;44.10
34927;DHT22;21132;48.308;14.274;2023-04-25T10:29:36;18.50;43.10
34927;DHT22;21132;48.308;14.274;2023-04-25T10:32:02;18.40;42.60
34927;DHT22;21132;48.308;14.274;2023-04-25T10:34:44;18.40;42.70
34927;DHT22;21132;48.308;14.274;2023-04-25T10:37:12;18.40;43.40
34927;DHT22;21132;48.308;14.274;2023-04-25T10:39:40;18.40;44.60
34927;DHT22;21132;48.308;14.274;2023-04-25T10:42:06;18.40;42.60
34927;DHT22;21132;48.308;14.274;2023-04-25T10:44:34;18.40;42.30
34927;DHT22;21132;48.308;14.274;2023-04-25T10:47:01;18.30;40.80
34927;DHT22;21132;48.308;14.274;2023-04-25T10:49:35;18.30;42.00
34927;DHT22;21132;48.308;14.274;2023-04-25T10:52:25;18.20;42.30
34927;DHT22;21132;48.308;14.274;2023-04-25T10:54:56;18.30;42.70
34927;DHT22;21132;48.308;14.274;2023-04-25T10:57:42;18.30;43.00
34927;DHT22;21132;48.308;14.274;2023-04-25T11:00:19;18.30;42.20
34927;DHT22;21132;48.308;14.274;2023-04-25T11:02:58;18.40;41.30
34927;DHT22;21132;48.308;14.274;2023-04-25T11:05:31;18.40;42.30
34927;DHT22;21132;48.308;14.274;2023-04-25T11:07:58;18.40;43.10
34927;DHT22;21132;48.308;14.274;2023-04-25T11:10:32;18.40;44.50
34927;DHT22;21132;48.308;14.274;2023-04-25T11:12:58;18.40;49.00
34927;DHT22;21132;48.308;14.274;2023-04-25T11:15:25;18.30;49.50
34927;DHT22;21132;48.308;14.274;2023-04-25T11:17:52;18.10;49.50
34927;DHT22;21132;48.308;14.274;2023-04-25T11:20:18;18.00;49.30
34927;DHT22;21132;48.308;14.274;2023-04-25T11:22:45;17.80;49.50
34927;DHT22;21132;48.308;14.274;2023-04-25T11:25:13;17.60;49.20
34927;DHT22;21132;48.308;14.274;2023-04-25T11:27:59;17.50;50.00
34927;DHT22;21132;48.308;14.274;2023-04-25T11:30:28;17.30;51.30
34927;DHT22;21132;48.308;14.274;2023-04-25T11:32:56;17.20;52.10
34927;DHT22;21132;48.308;14.274;2023-04-25T11:35:22;17.10;52.30
34927;DHT22;21132;48.308;14.274;2023-04-25T11:37:48;17.00;51.50
34927;DHT22;21132;48.308;14.274;2023-04-25T11:40:15;17.00;51.70
34927;DHT22;21132;48.308;14.274;2023-04-25T11:42:45;16.90;51.90
34927;DHT22;21132;48.308;14.274;2023-04-25T11:45:12;16.90;52.10
34927;DHT22;21132;48.308;14.274;2023-04-25T11:47:38;16.90;51.20
34927;DHT22;21132;48.308;14.274;2023-04-25T11:50:06;16.80;50.80
34927;DHT22;21132;48.308;14.274;2023-04-25T11:52:44;16.80;50.50
34927;DHT22;21132;48.308;14.274;2023-04-25T11:55:13;16.70;50.20
34927;DHT22;21132;48.308;14.274;2023-04-25T11:57:40;16.70;49.40
34927;DHT22;21132;48.308;14.274;2023-04-25T12:00:20;16.70;49.20
34927;DHT22;21132;48.308;14.274;2023-04-25T12:02:50;16.70;48.60
34927;DHT22;21132;48.308;14.274;2023-04-25T12:05:16;16.80;48.80
34927;DHT22;21132;48.308;14.274;2023-04-25T12:07:42;16.80;47.80
34927;DHT22;21132;48.308;14.274;2023-04-25T12:10:13;16.80;47.90
34927;DHT22;21132;48.308;14.274;2023-04-25T12:12:42;16.80;47.90
34927;DHT22;21132;48.308;14.274;2023-04-25T12:15:13;16.80;47.40
34927;DHT22;21132;48.308;14.274;2023-04-25T12:17:41;16.80;47.60
34927;DHT22;21132;48.308;14.274;2023-04-25T12:20:13;16.80;47.70
34927;DHT22;21132;48.308;14.274;2023-04-25T12:22:47;16.80;47.30
34927;DHT22;21132;48.308;14.274;2023-04-25T12:25:13;16.90;47.50
34927;DHT22;21132;48.308;14.274;2023-04-25T12:27:40;16.90;47.40
34927;DHT22;21132;48.308;14.274;2023-04-25T12:30:09;16.90;47.40
34927;DHT22;21132;48.308;14.274;2023-04-25T12:32:36;17.10;48.10
34927;DHT22;21132;48.308;14.274;2023-04-25T12:35:04;17.20;47.30
34927;DHT22;21132;48.308;14.274;2023-04-25T12:37:30;17.40;47.40
34927;DHT22;21132;48.308;14.274;2023-04-25T12:39:56;17.50;46.80
34927;DHT22;21132;48.308;14.274;2023-04-25T12:42:22;17.60;45.90
34927;DHT22;21132;48.308;14.274;2023-04-25T12:44:48;17.60;45.40
34927;DHT22;21132;48.308;14.274;2023-04-25T12:47:14;17.60;49.50
34927;DHT22;21132;48.308;14.274;2023-04-25T12:49:39;17.50;50.00
34927;DHT22;21132;48.308;14.274;2023-04-25T12:52:05;17.20;55.40
34927;DHT22;21132;48.308;14.274;2023-04-25T12:54:31;16.90;57.20
34927;DHT22;21132;48.308;14.274;2023-04-25T12:56:56;16.50;57.40
34927;DHT22;21132;48.308;14.274;2023-04-25T12:59:22;16.20;58.00
34927;DHT22;21132;48.308;14.274;2023-04-25T13:01:48;15.80;59.10
34927;DHT22;21132;48.308;14.274;2023-04-25T13:04:14;15.50;60.30
34927;DHT22;21132;48.308;14.274;2023-04-25T13:06:41;15.20;61.30
34927;DHT22;21132;48.308;14.274;2023-04-25T13:09:07;15.10;63.10
34927;DHT22;21132;48.308;14.274;2023-04-25T13:11:32;15.00;64.80
34927;DHT22;21132;48.308;14.274;2023-04-25T13:13:58;15.00;66.70
34927;DHT22;21132;48.308;14.274;2023-04-25T13:16:24;15.10;67.00
34927;DHT22;21132;48.308;14.274;2023-04-25T13:18:49;15.10;67.50
34927;DHT22;21132;48.308;14.274;2023-04-25T13:21:15;15.20;67.60
34927;DHT22;21132;48.308;14.274;2023-04-25T13:23:41;15.30;67.40
34927;DHT22;21132;48.308;14.274;2023-04-25T13:26:08;15.30;66.90
34927;DHT22;21132;48.308;14.274;2023-04-25T13:28:34;15.40;66.20
34927;DHT22;21132;48.308;14.274;2023-04-25T13:31:00;15.40;65.30
34927;DHT22;21132;48.308;14.274;2023-04-25T13:33:25;15.40;64.80
34927;DHT22;21132;48.308;14.274;2023-04-25T13:35:52;15.40;65.00
34927;DHT22;21132;48.308;14.274;2023-04-25T13:38:23;15.40;64.70
34927;DHT22;21132;48.308;14.274;2023-04-25T13:40:49;15.40;64.80
34927;DHT22;21132;48.308;14.274;2023-04-25T13:43:22;15.40;64.60
34927;DHT22;21132;48.308;14.274;2023-04-25T13:45:49;15.50;63.50
34927;DHT22;21132;48.308;14.274;2023-04-25T13:48:15;15.50;62.80
34927;DHT22;21132;48.308;14.274;2023-04-25T13:50:41;15.60;61.70
34927;DHT22;21132;48.308;14.274;2023-04-25T13:53:06;15.70;61.60
34927;DHT22;21132;48.308;14.274;2023-04-25T13:55:34;15.80;59.70
34927;DHT22;21132;48.308;14.274;2023-04-25T13:58:00;15.90;58.80
34927;DHT22;21132;48.308;14.274;2023-04-25T14:00:33;16.00;59.00
34927;DHT22;21132;48.308;14.274;2023-04-25T14:02:59;16.20;58.90
34927;DHT22;21132;48.308;14.274;2023-04-25T14:05:24;16.40;57.90
34927;DHT22;21132;48.308;14.274;2023-04-25T14:07:50;16.60;55.90
34927;DHT22;21132;48.308;14.274;2023-04-25T14:10:16;16.90;56.50
34927;DHT22;21132;48.308;14.274;2023-04-25T14:12:42;17.10;55.80
34927;DHT22;21132;48.308;14.274;2023-04-25T14:15:08;17.40;54.60
34927;DHT22;21132;48.308;14.274;2023-04-25T14:17:33;17.60;54.70
34927;DHT22;21132;48.308;14.274;2023-04-25T14:19:59;17.90;54.00
34927;DHT22;21132;48.308;14.274;2023-04-25T14:22:25;18.20;54.70
34927;DHT22;21132;48.308;14.274;2023-04-25T14:24:51;18.40;52.60
34927;DHT22;21132;48.308;14.274;2023-04-25T14:27:17;18.60;51.80
34927;DHT22;21132;48.308;14.274;2023-04-25T14:29:43;18.70;50.30
34927;DHT22;21132;48.308;14.274;2023-04-25T14:32:08;18.90;49.70
34927;DHT22;21132;48.308;14.274;2023-04-25T14:34:34;19.00;47.50
34927;DHT22;21132;48.308;14.274;2023-04-25T14:37:00;19.10;47.60
34927;DHT22;21132;48.308;14.274;2023-04-25T14:39:26;19.20;46.30
34927;DHT22;21132;48.308;14.274;2023-04-25T14:41:51;19.40;46.40
34927;DHT22;21132;48.308;14.274;2023-04-25T14:44:17;19.50;46.10
34927;DHT22;21132;48.308;14.274;2023-04-25T14:46:43;19.70;45.10
34927;DHT22;21132;48.308;14.274;2023-04-25T14:49:09;19.80;44.20
34927;DHT22;21132;48.308;14.274;2023-04-25T14:51:35;19.80;44.50
34927;DHT22;21132;48.308;14.274;2023-04-25T14:54:00;19.80;43.30
34927;DHT22;21132;48.308;14.274;2023-04-25T14:56:26;19.80;43.60
34927;DHT22;21132;48.308;14.274;2023-04-25T14:58:52;19.80;43.30
34927;DHT22;21132;48.308;14.274;2023-04-25T15:01:17;19.90;43.20
34927;DHT22;21132;48.308;14.274;2023-04-25T15:03:45;19.90;42.80
34927;DHT22;21132;48.308;14.274;2023-04-25T15:06:11;20.00;42.60
34927;DHT22;21132;48.308;14.274;2023-04-25T15:08:37;19.90;42.60
34927;DHT22;21132;48.308;14.274;2023-04-25T15:11:03;19.90;42.10
34927;DHT22;21132;48.308;14.274;2023-04-25T15:13:29;20.00;43.00
34927;DHT22;21132;48.308;14.274;2023-04-25T15:15:55;20.10;42.20
34927;DHT22;21132;48.308;14.274;2023-04-25T15:18:21;20.10;42.00